sensor_id;sensor_type;location;lat;lon;timestamp;temperature;humidity
36654;DHT22;22650;49.350;20.898;2024-03-06T00:02:13;6.50;99.90
36654;DHT22;22650;49.350;20.898;2024-03-06T00:04:46;6.40;99.90
36654;DHT22;22650;49.350;20.898;2024-03-06T00:07:22;6.40;99.90
36654;DHT22;22650;49.350;20.898;2024-03-06T00:09:55;6.40;99.90
36654;DHT22;22650;49.350;20.898;2024-03-06T00:12:29;6.40;99.90
36654;DHT22;22650;49.350;20.898;2024-03-06T00:15:03;6.30;99.90
36654;DHT22;22650;49.350;20.898;2024-03-06T00:17:36;6.30;99.90
36654;DHT22;22650;49.350;20.898;2024-03-06T00:20:11;6.40;99.90
36654;DHT22;22650;49.350;20.898;2024-03-06T00:22:48;6.40;99.90
36654;DHT22;22650;49.350;20.898;2024-03-06T00:25:21;6.30;99.90
36654;DHT22;22650;49.350;20.898;2024-03-06T00:27:55;6.40;99.90
36654;DHT22;22650;49.350;20.898;2024-03-06T00:30:28;6.40;99.90
36654;DHT22;22650;49.350;20.898;2024-03-06T00:33:02;6.40;99.90
36654;DHT22;22650;49.350;20.898;2024-03-06T00:35:36;6.40;99.90
36654;DHT22;22650;49.350;20.898;2024-03-06T00:38:11;6.40;99.90
36654;DHT22;22650;49.350;20.898;2024-03-06T00:40:45;6.30;99.90
36654;DHT22;22650;49.350;20.898;2024-03-06T00:43:19;6.30;99.90
36654;DHT22;22650;49.350;20.898;2024-03-06T00:45:52;6.30;99.90
36654;DHT22;22650;49.350;20.898;2024-03-06T00:48:26;6.30;99.90
36654;DHT22;22650;49.350;20.898;2024-03-06T00:50:59;6.40;99.90
36654;DHT22;22650;49.350;20.898;2024-03-06T00:53:34;6.40;99.90
36654;DHT22;22650;49.350;20.898;2024-03-06T00:56:08;6.40;99.90
36654;DHT22;22650;49.350;20.898;2024-03-06T00:58:42;6.40;99.90
36654;DHT22;22650;49.350;20.898;2024-03-06T01:01:16;6.40;99.90
36654;DHT22;22650;49.350;20.898;2024-03-06T01:03:50;6.40;99.90
36654;DHT22;22650;49.350;20.898;2024-03-06T01:06:23;6.40;99.90
36654;DHT22;22650;49.350;20.898;2024-03-06T01:08:58;6.40;99.90
36654;DHT22;22650;49.350;20.898;2024-03-06T01:11:32;6.50;99.90
36654;DHT22;22650;49.350;20.898;2024-03-06T01:14:05;6.50;99.90
36654;DHT22;22650;49.350;20.898;2024-03-06T01:16:39;6.50;99.90
36654;DHT22;22650;49.350;20.898;2024-03-06T01:19:13;6.50;99.90
36654;DHT22;22650;49.350;20.898;2024-03-06T01:21:46;6.60;99.90
36654;DHT22;22650;49.350;20.898;2024-03-06T01:24:22;6.60;99.90
36654;DHT22;22650;49.350;20.898;2024-03-06T01:26:55;6.60;99.90
36654;DHT22;22650;49.350;20.898;2024-03-06T01:29:29;6.60;99.90
36654;DHT22;22650;49.350;20.898;2024-03-06T01:32:02;6.60;99.90
36654;DHT22;22650;49.350;20.898;2024-03-06T01:34:36;6.60;99.90
36654;DHT22;22650;49.350;20.898;2024-03-06T01:37:10;6.60;99.90
36654;DHT22;22650;49.350;20.898;2024-03-06T01:39:45;6.60;99.90
36654;DHT22;22650;49.350;20.898;2024-03-06T01:42:18;6.60;99.90
36654;DHT22;22650;49.350;20.898;2024-03-06T01:44:52;6.60;99.90
36654;DHT22;22650;49.350;20.898;2024-03-06T01:47:26;6.60;99.90
36654;DHT22;22650;49.350;20.898;2024-03-06T01:49:59;6.60;99.90
36654;DHT22;22650;49.350;20.898;2024-03-06T01:52:34;6.60;99.90
36654;DHT22;22650;49.350;20.898;2024-03-06T01:55:09;6.60;99.90
36654;DHT22;22650;49.350;20.898;2024-03-06T01:57:43;6.60;99.90
36654;DHT22;22650;49.350;20.898;2024-03-06T02:00:17;6.60;99.90
36654;DHT22;22650;49.350;20.898;2024-03-06T02:02:51;6.50;99.90
36654;DHT22;22650;49.350;20.898;2024-03-06T02:05:24;6.50;99.90
36654;DHT22;22650;49.350;20.898;2024-03-06T02:07:58;6.50;99.90
36654;DHT22;22650;49.350;20.898;2024-03-06T02:10:34;6.50;99.90
36654;DHT22;22650;49.350;20.898;2024-03-06T02:13:08;6.50;99.90
36654;DHT22;22650;49.350;20.898;2024-03-06T02:15:44;6.50;99.90
36654;DHT22;22650;49.350;20.898;2024-03-06T02:18:18;6.50;99.90
36654;DHT22;22650;49.350;20.898;2024-03-06T02:20:53;6.50;99.90
36654;DHT22;22650;49.350;20.898;2024-03-06T02:23:27;6.40;99.90
36654;DHT22;22650;49.350;20.898;2024-03-06T02:26:01;6.40;99.90
36654;DHT22;22650;49.350;20.898;2024-03-06T02:28:34;6.40;99.90
36654;DHT22;22650;49.350;20.898;2024-03-06T02:31:08;6.40;99.90
36654;DHT22;22650;49.350;20.898;2024-03-06T02:33:42;6.40;99.90
36654;DHT22;22650;49.350;20.898;2024-03-06T02:36:18;6.40;99.90
36654;DHT22;22650;49.350;20.898;2024-03-06T02:38:51;6.40;99.90
36654;DHT22;22650;49.350;20.898;2024-03-06T02:41:25;6.40;99.90
36654;DHT22;22650;49.350;20.898;2024-03-06T02:43:59;6.40;99.90
36654;DHT22;22650;49.350;20.898;2024-03-06T02:46:32;6.40;99.90
36654;DHT22;22650;49.350;20.898;2024-03-06T02:49:06;6.40;99.90
36654;DHT22;22650;49.350;20.898;2024-03-06T02:51:41;6.40;99.90
36654;DHT22;22650;49.350;20.898;2024-03-06T02:54:15;6.40;99.90
36654;DHT22;22650;49.350;20.898;2024-03-06T02:56:48;6.40;99.90
36654;DHT22;22650;49.350;20.898;2024-03-06T02:59:24;6.40;99.90
36654;DHT22;22650;49.350;20.898;2024-03-06T03:01:58;6.40;99.90
36654;DHT22;22650;49.350;20.898;2024-03-06T03:04:32;6.40;99.90
36654;DHT22;22650;49.350;20.898;2024-03-06T03:07:07;6.40;99.90
36654;DHT22;22650;49.350;20.898;2024-03-06T03:09:42;6.40;99.90
36654;DHT22;22650;49.350;20.898;2024-03-06T03:12:16;6.40;99.90
36654;DHT22;22650;49.350;20.898;2024-03-06T03:14:49;6.40;99.90
36654;DHT22;22650;49.350;20.898;2024-03-06T03:17:23;6.40;99.90
36654;DHT22;22650;49.350;20.898;2024-03-06T03:19:56;6.40;99.90
36654;DHT22;22650;49.350;20.898;2024-03-06T03:22:31;6.40;99.90
36654;DHT22;22650;49.350;20.898;2024-03-06T03:25:07;6.40;99.90
36654;DHT22;22650;49.350;20.898;2024-03-06T03:27:42;6.30;99.90
36654;DHT22;22650;49.350;20.898;2024-03-06T03:30:17;6.30;99.90
36654;DHT22;22650;49.350;20.898;2024-03-06T03:32:53;6.30;99.90
36654;DHT22;22650;49.350;20.898;2024-03-06T03:35:28;6.30;99.90
36654;DHT22;22650;49.350;20.898;2024-03-06T03:38:03;6.30;99.90
36654;DHT22;22650;49.350;20.898;2024-03-06T03:40:36;6.30;99.90
36654;DHT22;22650;49.350;20.898;2024-03-06T03:43:10;6.20;99.90
36654;DHT22;22650;49.350;20.898;2024-03-06T03:45:44;6.20;99.90
36654;DHT22;22650;49.350;20.898;2024-03-06T03:48:17;6.20;99.90
36654;DHT22;22650;49.350;20.898;2024-03-06T03:50:51;6.20;99.90
36654;DHT22;22650;49.350;20.898;2024-03-06T03:53:26;6.10;99.90
36654;DHT22;22650;49.350;20.898;2024-03-06T03:56:00;6.10;99.90
36654;DHT22;22650;49.350;20.898;2024-03-06T03:58:33;6.00;99.90
36654;DHT22;22650;49.350;20.898;2024-03-06T04:01:10;6.00;99.90
36654;DHT22;22650;49.350;20.898;2024-03-06T04:03:44;6.00;99.90
36654;DHT22;22650;49.350;20.898;2024-03-06T04:06:18;6.00;99.90
36654;DHT22;22650;49.350;20.898;2024-03-06T04:08:53;5.90;99.90
36654;DHT22;22650;49.350;20.898;2024-03-06T04:11:26;5.90;99.90
36654;DHT22;22650;49.350;20.898;2024-03-06T04:14:02;5.90;99.90
36654;DHT22;22650;49.350;20.898;2024-03-06T04:16:35;5.90;99.90
36654;DHT22;22650;49.350;20.898;2024-03-06T04:19:09;5.90;99.90
36654;DHT22;22650;49.350;20.898;2024-03-06T04:21:43;5.90;99.90
36654;DHT22;22650;49.350;20.898;2024-03-06T04:24:18;6.00;99.90
36654;DHT22;22650;49.350;20.898;2024-03-06T04:26:51;5.90;99.90
36654;DHT22;22650;49.350;20.898;2024-03-06T04:29:25;5.90;99.90
36654;DHT22;22650;49.350;20.898;2024-03-06T04:31:59;5.90;99.90
36654;DHT22;22650;49.350;20.898;2024-03-06T04:34:32;5.90;99.90
36654;DHT22;22650;49.350;20.898;2024-03-06T04:37:06;5.90;99.90
36654;DHT22;22650;49.350;20.898;2024-03-06T04:39:41;5.90;99.90
36654;DHT22;22650;49.350;20.898;2024-03-06T04:42:33;6.00;99.90
36654;DHT22;22650;49.350;20.898;2024-03-06T04:45:10;6.00;99.90
36654;DHT22;22650;49.350;20.898;2024-03-06T04:47:44;6.00;99.90
36654;DHT22;22650;49.350;20.898;2024-03-06T04:50:18;6.00;99.90
36654;DHT22;22650;49.350;20.898;2024-03-06T04:52:51;6.00;99.90
36654;DHT22;22650;49.350;20.898;2024-03-06T04:55:26;6.00;99.90
36654;DHT22;22650;49.350;20.898;2024-03-06T04:58:00;6.00;99.90
36654;DHT22;22650;49.350;20.898;2024-03-06T05:00:34;6.00;99.90
36654;DHT22;22650;49.350;20.898;2024-03-06T05:03:07;6.00;99.90
36654;DHT22;22650;49.350;20.898;2024-03-06T05:05:58;6.00;99.90
36654;DHT22;22650;49.350;20.898;2024-03-06T05:08:49;5.90;99.90
36654;DHT22;22650;49.350;20.898;2024-03-06T05:11:41;5.90;99.90
36654;DHT22;22650;49.350;20.898;2024-03-06T05:14:32;5.90;99.90
36654;DHT22;22650;49.350;20.898;2024-03-06T05:17:23;5.80;99.90
36654;DHT22;22650;49.350;20.898;2024-03-06T05:20:14;5.80;99.90
36654;DHT22;22650;49.350;20.898;2024-03-06T05:23:06;5.80;99.90
36654;DHT22;22650;49.350;20.898;2024-03-06T05:25:56;5.80;99.90
36654;DHT22;22650;49.350;20.898;2024-03-06T05:28:49;5.90;99.90
36654;DHT22;22650;49.350;20.898;2024-03-06T05:31:40;5.90;99.90
36654;DHT22;22650;49.350;20.898;2024-03-06T05:34:31;5.90;99.90
36654;DHT22;22650;49.350;20.898;2024-03-06T05:37:22;5.90;99.90
36654;DHT22;22650;49.350;20.898;2024-03-06T05:40:13;5.80;99.90
36654;DHT22;22650;49.350;20.898;2024-03-06T05:43:04;5.80;99.90
36654;DHT22;22650;49.350;20.898;2024-03-06T05:45:56;5.80;99.90
36654;DHT22;22650;49.350;20.898;2024-03-06T05:48:48;5.80;99.90
36654;DHT22;22650;49.350;20.898;2024-03-06T05:51:40;5.80;99.90
36654;DHT22;22650;49.350;20.898;2024-03-06T05:54:31;5.80;99.90
36654;DHT22;22650;49.350;20.898;2024-03-06T05:57:23;5.80;99.90
36654;DHT22;22650;49.350;20.898;2024-03-06T06:00:15;5.70;99.90
36654;DHT22;22650;49.350;20.898;2024-03-06T06:02:52;5.70;99.90
36654;DHT22;22650;49.350;20.898;2024-03-06T06:05:25;5.70;99.90
36654;DHT22;22650;49.350;20.898;2024-03-06T06:07:59;5.80;99.90
36654;DHT22;22650;49.350;20.898;2024-03-06T06:10:33;5.80;99.90
36654;DHT22;22650;49.350;20.898;2024-03-06T06:13:06;5.80;99.90
36654;DHT22;22650;49.350;20.898;2024-03-06T06:15:40;5.80;99.90
36654;DHT22;22650;49.350;20.898;2024-03-06T06:18:15;5.80;99.90
36654;DHT22;22650;49.350;20.898;2024-03-06T06:20:49;5.80;99.90
36654;DHT22;22650;49.350;20.898;2024-03-06T06:23:23;5.80;99.90
36654;DHT22;22650;49.350;20.898;2024-03-06T06:25:56;5.80;99.90
36654;DHT22;22650;49.350;20.898;2024-03-06T06:28:30;5.80;99.90
36654;DHT22;22650;49.350;20.898;2024-03-06T06:31:04;5.80;99.90
36654;DHT22;22650;49.350;20.898;2024-03-06T06:33:42;5.80;99.90
36654;DHT22;22650;49.350;20.898;2024-03-06T06:36:24;5.80;99.90
36654;DHT22;22650;49.350;20.898;2024-03-06T06:38:59;5.80;99.90
36654;DHT22;22650;49.350;20.898;2024-03-06T06:41:37;5.80;99.90
36654;DHT22;22650;49.350;20.898;2024-03-06T06:44:11;5.80;99.90
36654;DHT22;22650;49.350;20.898;2024-03-06T06:46:47;5.80;99.90
36654;DHT22;22650;49.350;20.898;2024-03-06T06:49:26;5.80;99.90
36654;DHT22;22650;49.350;20.898;2024-03-06T06:52:03;5.80;99.90
36654;DHT22;22650;49.350;20.898;2024-03-06T06:54:37;5.70;99.90
36654;DHT22;22650;49.350;20.898;2024-03-06T06:57:11;5.70;99.90
36654;DHT22;22650;49.350;20.898;2024-03-06T06:59:49;5.70;99.90
36654;DHT22;22650;49.350;20.898;2024-03-06T07:02:22;5.70;99.90
36654;DHT22;22650;49.350;20.898;2024-03-06T07:04:57;5.80;99.90
36654;DHT22;22650;49.350;20.898;2024-03-06T07:07:31;5.70;99.90
36654;DHT22;22650;49.350;20.898;2024-03-06T07:10:05;5.70;99.90
36654;DHT22;22650;49.350;20.898;2024-03-06T07:12:39;5.60;99.90
36654;DHT22;22650;49.350;20.898;2024-03-06T07:15:13;5.60;99.90
36654;DHT22;22650;49.350;20.898;2024-03-06T07:17:47;5.60;99.90
36654;DHT22;22650;49.350;20.898;2024-03-06T07:20:22;5.60;99.90
36654;DHT22;22650;49.350;20.898;2024-03-06T07:22:56;5.50;99.90
36654;DHT22;22650;49.350;20.898;2024-03-06T07:25:29;5.60;99.90
36654;DHT22;22650;49.350;20.898;2024-03-06T07:28:03;5.60;99.90
36654;DHT22;22650;49.350;20.898;2024-03-06T07:30:37;5.60;99.90
36654;DHT22;22650;49.350;20.898;2024-03-06T07:33:11;5.60;99.90
36654;DHT22;22650;49.350;20.898;2024-03-06T07:35:47;5.60;99.90
36654;DHT22;22650;49.350;20.898;2024-03-06T07:38:21;5.60;99.90
36654;DHT22;22650;49.350;20.898;2024-03-06T07:40:55;5.60;99.90
36654;DHT22;22650;49.350;20.898;2024-03-06T07:43:29;5.50;99.90
36654;DHT22;22650;49.350;20.898;2024-03-06T07:46:03;5.50;99.90
36654;DHT22;22650;49.350;20.898;2024-03-06T07:48:42;5.50;99.90
36654;DHT22;22650;49.350;20.898;2024-03-06T07:51:18;5.50;99.90
36654;DHT22;22650;49.350;20.898;2024-03-06T07:53:52;5.50;99.90
36654;DHT22;22650;49.350;20.898;2024-03-06T07:56:26;5.50;99.90
36654;DHT22;22650;49.350;20.898;2024-03-06T07:59:01;5.60;99.90
36654;DHT22;22650;49.350;20.898;2024-03-06T08:01:35;5.60;99.90
36654;DHT22;22650;49.350;20.898;2024-03-06T08:04:08;5.60;99.90
36654;DHT22;22650;49.350;20.898;2024-03-06T08:06:43;5.60;99.90
36654;DHT22;22650;49.350;20.898;2024-03-06T08:09:18;5.60;99.90
36654;DHT22;22650;49.350;20.898;2024-03-06T08:11:52;5.50;99.90
36654;DHT22;22650;49.350;20.898;2024-03-06T08:14:27;5.50;99.90
36654;DHT22;22650;49.350;20.898;2024-03-06T08:17:01;5.50;99.90
36654;DHT22;22650;49.350;20.898;2024-03-06T08:19:35;5.50;99.90
36654;DHT22;22650;49.350;20.898;2024-03-06T08:22:10;5.50;99.90
36654;DHT22;22650;49.350;20.898;2024-03-06T08:24:43;5.60;99.90
36654;DHT22;22650;49.350;20.898;2024-03-06T08:27:17;5.60;99.90
36654;DHT22;22650;49.350;20.898;2024-03-06T08:29:51;5.60;99.90
36654;DHT22;22650;49.350;20.898;2024-03-06T08:32:26;5.70;99.90
36654;DHT22;22650;49.350;20.898;2024-03-06T08:35:00;5.80;99.90
36654;DHT22;22650;49.350;20.898;2024-03-06T08:37:35;5.80;99.90
36654;DHT22;22650;49.350;20.898;2024-03-06T08:40:09;5.90;99.90
36654;DHT22;22650;49.350;20.898;2024-03-06T08:42:47;5.90;99.90
36654;DHT22;22650;49.350;20.898;2024-03-06T08:45:21;6.00;99.90
36654;DHT22;22650;49.350;20.898;2024-03-06T08:47:56;6.00;99.90
36654;DHT22;22650;49.350;20.898;2024-03-06T08:50:29;6.10;99.90
36654;DHT22;22650;49.350;20.898;2024-03-06T08:53:05;6.10;99.90
36654;DHT22;22650;49.350;20.898;2024-03-06T08:55:39;6.20;99.90
36654;DHT22;22650;49.350;20.898;2024-03-06T08:58:13;6.20;99.90
36654;DHT22;22650;49.350;20.898;2024-03-06T09:00:47;6.30;99.90
36654;DHT22;22650;49.350;20.898;2024-03-06T09:03:21;6.40;99.90
36654;DHT22;22650;49.350;20.898;2024-03-06T09:05:55;6.50;99.90
36654;DHT22;22650;49.350;20.898;2024-03-06T09:08:30;6.50;99.90
36654;DHT22;22650;49.350;20.898;2024-03-06T09:11:04;6.60;99.90
36654;DHT22;22650;49.350;20.898;2024-03-06T09:13:38;6.60;99.90
36654;DHT22;22650;49.350;20.898;2024-03-06T09:16:11;6.50;99.90
36654;DHT22;22650;49.350;20.898;2024-03-06T09:18:45;6.50;99.90
36654;DHT22;22650;49.350;20.898;2024-03-06T09:21:18;6.60;99.90
36654;DHT22;22650;49.350;20.898;2024-03-06T09:23:55;6.60;99.90
36654;DHT22;22650;49.350;20.898;2024-03-06T09:26:29;6.80;99.90
36654;DHT22;22650;49.350;20.898;2024-03-06T09:29:02;6.80;99.90
36654;DHT22;22650;49.350;20.898;2024-03-06T09:31:36;6.80;99.90
36654;DHT22;22650;49.350;20.898;2024-03-06T09:34:11;6.90;99.90
36654;DHT22;22650;49.350;20.898;2024-03-06T09:36:47;7.00;99.90
36654;DHT22;22650;49.350;20.898;2024-03-06T09:39:23;7.00;99.90
36654;DHT22;22650;49.350;20.898;2024-03-06T09:41:56;7.00;99.90
36654;DHT22;22650;49.350;20.898;2024-03-06T09:44:30;7.10;99.90
36654;DHT22;22650;49.350;20.898;2024-03-06T09:47:05;7.10;99.90
36654;DHT22;22650;49.350;20.898;2024-03-06T09:49:40;7.30;99.90
36654;DHT22;22650;49.350;20.898;2024-03-06T09:52:14;7.30;99.90
36654;DHT22;22650;49.350;20.898;2024-03-06T09:54:50;7.30;99.90
36654;DHT22;22650;49.350;20.898;2024-03-06T09:57:24;7.40;99.90
36654;DHT22;22650;49.350;20.898;2024-03-06T09:59:58;7.40;99.90
36654;DHT22;22650;49.350;20.898;2024-03-06T10:02:37;7.30;99.90
36654;DHT22;22650;49.350;20.898;2024-03-06T10:05:21;7.30;99.90
36654;DHT22;22650;49.350;20.898;2024-03-06T10:07:55;7.40;99.90
36654;DHT22;22650;49.350;20.898;2024-03-06T10:10:31;7.40;99.90
36654;DHT22;22650;49.350;20.898;2024-03-06T10:13:05;7.50;99.90
36654;DHT22;22650;49.350;20.898;2024-03-06T10:15:39;7.50;99.90
36654;DHT22;22650;49.350;20.898;2024-03-06T10:18:14;7.50;99.90
36654;DHT22;22650;49.350;20.898;2024-03-06T10:20:50;7.50;99.90
36654;DHT22;22650;49.350;20.898;2024-03-06T10:23:25;7.50;99.90
36654;DHT22;22650;49.350;20.898;2024-03-06T10:26:02;7.50;99.90
36654;DHT22;22650;49.350;20.898;2024-03-06T10:28:35;7.50;99.90
36654;DHT22;22650;49.350;20.898;2024-03-06T10:31:09;7.60;99.90
36654;DHT22;22650;49.350;20.898;2024-03-06T10:33:43;7.60;99.90
36654;DHT22;22650;49.350;20.898;2024-03-06T10:36:16;7.60;99.90
36654;DHT22;22650;49.350;20.898;2024-03-06T10:38:51;7.60;99.90
36654;DHT22;22650;49.350;20.898;2024-03-06T10:41:30;7.60;99.90
36654;DHT22;22650;49.350;20.898;2024-03-06T10:44:10;7.60;99.90
36654;DHT22;22650;49.350;20.898;2024-03-06T10:46:46;7.60;99.90
36654;DHT22;22650;49.350;20.898;2024-03-06T10:49:22;7.60;99.90
36654;DHT22;22650;49.350;20.898;2024-03-06T10:51:58;7.60;99.90
36654;DHT22;22650;49.350;20.898;2024-03-06T10:54:32;7.50;99.90
36654;DHT22;22650;49.350;20.898;2024-03-06T10:57:08;7.50;99.90
36654;DHT22;22650;49.350;20.898;2024-03-06T10:59:43;7.40;99.90
36654;DHT22;22650;49.350;20.898;2024-03-06T11:02:18;7.40;99.90
36654;DHT22;22650;49.350;20.898;2024-03-06T11:04:53;7.30;99.90
36654;DHT22;22650;49.350;20.898;2024-03-06T11:07:26;7.40;99.90
36654;DHT22;22650;49.350;20.898;2024-03-06T11:10:01;7.40;99.90
36654;DHT22;22650;49.350;20.898;2024-03-06T11:12:39;7.40;99.90
36654;DHT22;22650;49.350;20.898;2024-03-06T11:15:14;7.30;99.90
36654;DHT22;22650;49.350;20.898;2024-03-06T11:17:48;7.30;99.90
36654;DHT22;22650;49.350;20.898;2024-03-06T11:20:23;7.20;99.90
36654;DHT22;22650;49.350;20.898;2024-03-06T11:23:07;7.20;99.90
36654;DHT22;22650;49.350;20.898;2024-03-06T11:26:03;7.30;99.90
36654;DHT22;22650;49.350;20.898;2024-03-06T11:28:38;7.30;99.90
36654;DHT22;22650;49.350;20.898;2024-03-06T11:31:22;7.30;99.90
36654;DHT22;22650;49.350;20.898;2024-03-06T11:33:56;7.20;99.90
36654;DHT22;22650;49.350;20.898;2024-03-06T11:36:31;7.20;99.90
36654;DHT22;22650;49.350;20.898;2024-03-06T11:39:06;7.30;99.90
36654;DHT22;22650;49.350;20.898;2024-03-06T11:41:47;7.20;99.90
36654;DHT22;22650;49.350;20.898;2024-03-06T11:44:22;7.30;99.90
36654;DHT22;22650;49.350;20.898;2024-03-06T11:46:59;7.20;99.90
36654;DHT22;22650;49.350;20.898;2024-03-06T11:49:33;7.20;99.90
36654;DHT22;22650;49.350;20.898;2024-03-06T11:52:09;7.20;99.90
36654;DHT22;22650;49.350;20.898;2024-03-06T11:54:42;7.20;99.90
36654;DHT22;22650;49.350;20.898;2024-03-06T11:57:16;7.10;99.90
36654;DHT22;22650;49.350;20.898;2024-03-06T11:59:54;7.00;99.90
36654;DHT22;22650;49.350;20.898;2024-03-06T12:02:28;6.90;99.90
36654;DHT22;22650;49.350;20.898;2024-03-06T12:05:03;6.80;99.90
36654;DHT22;22650;49.350;20.898;2024-03-06T12:07:46;6.70;99.90
36654;DHT22;22650;49.350;20.898;2024-03-06T12:10:19;6.60;99.90
36654;DHT22;22650;49.350;20.898;2024-03-06T12:12:53;6.60;99.90
36654;DHT22;22650;49.350;20.898;2024-03-06T12:15:28;6.60;99.90
36654;DHT22;22650;49.350;20.898;2024-03-06T12:18:02;6.50;99.90
36654;DHT22;22650;49.350;20.898;2024-03-06T12:20:41;6.50;99.90
36654;DHT22;22650;49.350;20.898;2024-03-06T12:23:21;6.50;99.90
36654;DHT22;22650;49.350;20.898;2024-03-06T12:26:05;6.50;99.90
36654;DHT22;22650;49.350;20.898;2024-03-06T12:28:39;6.50;99.90
36654;DHT22;22650;49.350;20.898;2024-03-06T12:31:14;6.60;99.90
36654;DHT22;22650;49.350;20.898;2024-03-06T12:33:56;6.50;99.90
36654;DHT22;22650;49.350;20.898;2024-03-06T12:36:34;6.60;99.90
36654;DHT22;22650;49.350;20.898;2024-03-06T12:39:09;6.60;99.90
36654;DHT22;22650;49.350;20.898;2024-03-06T12:41:45;6.60;99.90
36654;DHT22;22650;49.350;20.898;2024-03-06T12:44:19;6.60;99.90
36654;DHT22;22650;49.350;20.898;2024-03-06T12:46:58;6.60;99.90
36654;DHT22;22650;49.350;20.898;2024-03-06T12:49:33;6.50;99.90
36654;DHT22;22650;49.350;20.898;2024-03-06T12:52:06;6.50;99.90
36654;DHT22;22650;49.350;20.898;2024-03-06T12:54:41;6.60;99.90
36654;DHT22;22650;49.350;20.898;2024-03-06T12:57:15;6.60;99.90
36654;DHT22;22650;49.350;20.898;2024-03-06T12:59:50;6.60;99.90
36654;DHT22;22650;49.350;20.898;2024-03-06T13:02:25;6.60;99.90
36654;DHT22;22650;49.350;20.898;2024-03-06T13:04:58;6.60;99.90
36654;DHT22;22650;49.350;20.898;2024-03-06T13:07:32;6.50;99.90
36654;DHT22;22650;49.350;20.898;2024-03-06T13:10:07;6.50;99.90
36654;DHT22;22650;49.350;20.898;2024-03-06T13:12:42;6.50;99.90
36654;DHT22;22650;49.350;20.898;2024-03-06T13:15:16;6.50;99.90
36654;DHT22;22650;49.350;20.898;2024-03-06T13:17:51;6.50;99.90
36654;DHT22;22650;49.350;20.898;2024-03-06T13:20:25;6.50;99.90
36654;DHT22;22650;49.350;20.898;2024-03-06T13:22:59;6.40;99.90
36654;DHT22;22650;49.350;20.898;2024-03-06T13:25:33;6.50;99.90
36654;DHT22;22650;49.350;20.898;2024-03-06T13:28:07;6.50;99.90
36654;DHT22;22650;49.350;20.898;2024-03-06T13:30:41;6.50;99.90
36654;DHT22;22650;49.350;20.898;2024-03-06T13:33:16;6.50;99.90
36654;DHT22;22650;49.350;20.898;2024-03-06T13:35:50;6.50;99.90
36654;DHT22;22650;49.350;20.898;2024-03-06T13:38:29;6.50;99.90
36654;DHT22;22650;49.350;20.898;2024-03-06T13:41:09;6.50;99.90
36654;DHT22;22650;49.350;20.898;2024-03-06T13:43:49;6.50;99.90
36654;DHT22;22650;49.350;20.898;2024-03-06T13:46:23;6.50;99.90
36654;DHT22;22650;49.350;20.898;2024-03-06T13:48:58;6.50;99.90
36654;DHT22;22650;49.350;20.898;2024-03-06T13:51:32;6.50;99.90
36654;DHT22;22650;49.350;20.898;2024-03-06T13:54:06;6.50;99.90
36654;DHT22;22650;49.350;20.898;2024-03-06T13:56:41;6.50;99.90
36654;DHT22;22650;49.350;20.898;2024-03-06T13:59:16;6.50;99.90
36654;DHT22;22650;49.350;20.898;2024-03-06T14:01:49;6.60;99.90
36654;DHT22;22650;49.350;20.898;2024-03-06T14:04:24;6.60;99.90
36654;DHT22;22650;49.350;20.898;2024-03-06T14:06:58;6.40;99.90
36654;DHT22;22650;49.350;20.898;2024-03-06T14:09:32;6.40;99.90
36654;DHT22;22650;49.350;20.898;2024-03-06T14:12:07;6.40;99.90
36654;DHT22;22650;49.350;20.898;2024-03-06T14:14:40;6.40;99.90
36654;DHT22;22650;49.350;20.898;2024-03-06T14:17:14;6.40;99.90
36654;DHT22;22650;49.350;20.898;2024-03-06T14:19:49;6.40;99.90
36654;DHT22;22650;49.350;20.898;2024-03-06T14:22:23;6.40;99.90
36654;DHT22;22650;49.350;20.898;2024-03-06T14:24:57;6.40;99.90
36654;DHT22;22650;49.350;20.898;2024-03-06T14:27:30;6.30;99.90
36654;DHT22;22650;49.350;20.898;2024-03-06T14:30:05;6.30;99.90
36654;DHT22;22650;49.350;20.898;2024-03-06T14:32:40;6.30;99.90
36654;DHT22;22650;49.350;20.898;2024-03-06T14:35:15;6.30;99.90
36654;DHT22;22650;49.350;20.898;2024-03-06T14:37:48;6.20;99.90
36654;DHT22;22650;49.350;20.898;2024-03-06T14:40:22;6.20;99.90
36654;DHT22;22650;49.350;20.898;2024-03-06T14:42:56;6.20;99.90
36654;DHT22;22650;49.350;20.898;2024-03-06T14:45:30;6.20;99.90
36654;DHT22;22650;49.350;20.898;2024-03-06T14:48:04;6.20;99.90
36654;DHT22;22650;49.350;20.898;2024-03-06T14:50:39;6.30;99.90
36654;DHT22;22650;49.350;20.898;2024-03-06T14:53:14;6.30;99.90
36654;DHT22;22650;49.350;20.898;2024-03-06T14:55:48;6.30;99.90
36654;DHT22;22650;49.350;20.898;2024-03-06T14:58:21;6.30;99.90
36654;DHT22;22650;49.350;20.898;2024-03-06T15:00:55;6.20;99.90
36654;DHT22;22650;49.350;20.898;2024-03-06T15:03:29;6.20;99.90
36654;DHT22;22650;49.350;20.898;2024-03-06T15:06:04;6.20;99.90
36654;DHT22;22650;49.350;20.898;2024-03-06T15:08:40;6.20;99.90
36654;DHT22;22650;49.350;20.898;2024-03-06T15:11:17;6.10;99.90
36654;DHT22;22650;49.350;20.898;2024-03-06T15:13:50;6.10;99.90
36654;DHT22;22650;49.350;20.898;2024-03-06T15:16:24;6.10;99.90
36654;DHT22;22650;49.350;20.898;2024-03-06T15:18:58;6.10;99.90
36654;DHT22;22650;49.350;20.898;2024-03-06T15:21:33;6.10;99.90
36654;DHT22;22650;49.350;20.898;2024-03-06T15:24:10;6.10;99.90
36654;DHT22;22650;49.350;20.898;2024-03-06T15:26:48;6.10;99.90
36654;DHT22;22650;49.350;20.898;2024-03-06T15:29:25;5.90;99.90
36654;DHT22;22650;49.350;20.898;2024-03-06T15:31:59;5.90;99.90
36654;DHT22;22650;49.350;20.898;2024-03-06T15:34:33;5.80;99.90
36654;DHT22;22650;49.350;20.898;2024-03-06T15:37:09;5.80;99.90
36654;DHT22;22650;49.350;20.898;2024-03-06T15:39:44;5.70;99.90
36654;DHT22;22650;49.350;20.898;2024-03-06T15:42:18;5.70;99.90
36654;DHT22;22650;49.350;20.898;2024-03-06T15:44:52;5.60;99.90
36654;DHT22;22650;49.350;20.898;2024-03-06T15:47:26;5.60;99.90
36654;DHT22;22650;49.350;20.898;2024-03-06T15:49:59;5.60;99.90
36654;DHT22;22650;49.350;20.898;2024-03-06T15:52:36;5.60;99.90
36654;DHT22;22650;49.350;20.898;2024-03-06T15:55:09;5.60;99.90
36654;DHT22;22650;49.350;20.898;2024-03-06T15:57:43;5.60;99.90
36654;DHT22;22650;49.350;20.898;2024-03-06T16:00:17;5.60;99.90
36654;DHT22;22650;49.350;20.898;2024-03-06T16:02:51;5.50;99.90
36654;DHT22;22650;49.350;20.898;2024-03-06T16:05:24;5.50;99.90
36654;DHT22;22650;49.350;20.898;2024-03-06T16:08:00;5.40;99.90
36654;DHT22;22650;49.350;20.898;2024-03-06T16:10:37;5.40;99.90
36654;DHT22;22650;49.350;20.898;2024-03-06T16:13:10;5.40;99.90
36654;DHT22;22650;49.350;20.898;2024-03-06T16:15:44;5.40;99.90
36654;DHT22;22650;49.350;20.898;2024-03-06T16:18:18;5.40;99.90
36654;DHT22;22650;49.350;20.898;2024-03-06T16:20:52;5.40;99.90
36654;DHT22;22650;49.350;20.898;2024-03-06T16:23:27;5.40;99.90